Time;durP1;ratioP1;P1;durP2;ratioP2;P2;SDS_P1;SDS_P2;PMS_P1;PMS_P2;Temp;Humidity;BMP_temperature;BMP_pressure;BME280_temperature;BME280_humidity;BME280_pressure;Samples;Min_cycle;Max_cycle;Signal;HPM_P1;HPM_P2
2023/10/31 00:00:40;;;;;;;8.23;3.50;;;;;;;12.64;99.19;64281.03;5092404;28;20257;-52
2023/10/31 00:03:06;;;;;;;4.20;3.23;;;;;;;12.60;99.66;64277.16;5074086;28;20220;-53
2023/10/31 00:05:32;;;;;;;7.63;3.50;;;;;;;12.59;98.94;64271.03;5092339;28;20657;-53
2023/10/31 00:07:57;;;;;;;7.00;3.60;;;;;;;12.54;98.75;64270.59;5091480;28;20218;-53
2023/10/31 00:10:23;;;;;;;4.63;3.37;;;;;;;12.59;98.83;64275.53;5073547;28;20640;-52
2023/10/31 00:12:48;;;;;;;5.90;3.47;;;;;;;12.53;98.88;64268.94;5092235;28;20628;-55
2023/10/31 00:15:14;;;;;;;5.43;3.57;;;;;;;12.51;98.45;64264.22;5092083;28;20235;-52
2023/10/31 00:17:40;;;;;;;3.03;2.70;;;;;;;12.65;98.01;64280.13;5073879;28;20234;-52
2023/10/31 00:20:06;;;;;;;6.23;3.07;;;;;;;12.63;98.09;64280.47;5073980;28;20200;-54
2023/10/31 00:22:31;;;;;;;7.13;3.60;;;;;;;12.48;97.97;64263.47;5091829;28;20223;-52
2023/10/31 00:24:57;;;;;;;5.87;3.40;;;;;;;12.55;97.57;64271.16;5092055;28;20208;-52
2023/10/31 00:27:23;;;;;;;3.47;2.80;;;;;;;12.59;96.31;64271.03;5091832;28;20212;-53
2023/10/31 00:29:55;;;;;;;3.42;2.58;;;;;;;12.55;96.79;64268.63;5091925;28;20207;-53
2023/10/31 00:32:21;;;;;;;6.23;3.10;;;;;;;12.58;96.92;64271.91;5091916;28;20220;-53
2023/10/31 00:34:46;;;;;;;6.22;3.42;;;;;;;12.66;95.77;64283.75;5091699;28;20195;-53
2023/10/31 00:37:12;;;;;;;3.45;2.90;;;;;;;12.67;95.60;64284.31;5091612;28;20215;-53
2023/10/31 00:39:37;;;;;;;6.33;3.07;;;;;;;12.55;97.20;64269.16;5073996;28;20641;-52
2023/10/31 00:42:03;;;;;;;7.27;3.13;;;;;;;12.56;96.99;64272.25;5091801;28;20264;-52
2023/10/31 00:44:28;;;;;;;5.57;3.33;;;;;;;12.61;97.79;64275.75;5092030;28;20741;-52
2023/10/31 00:46:53;;;;;;;4.20;3.40;;;;;;;12.74;95.92;64286.38;5091493;28;20581;-52
2023/10/31 00:49:19;;;;;;;7.50;2.55;;;;;;;12.81;95.65;64299.66;5091842;28;20216;-52
2023/10/31 00:51:45;;;;;;;9.88;3.50;;;;;;;12.81;93.45;64296.59;5091613;28;20712;-52
2023/10/31 00:54:10;;;;;;;6.55;2.75;;;;;;;12.87;93.96;64303.16;5091622;28;20204;-52
2023/10/31 00:56:36;;;;;;;5.75;3.05;;;;;;;12.89;94.01;64307.91;5091445;28;20256;-52
2023/10/31 00:59:02;;;;;;;4.07;2.35;;;;;;;13.02;91.16;64319.63;5091916;28;20219;-53
2023/10/31 01:01:27;;;;;;;6.97;2.55;;;;;;;13.05;91.13;64323.47;5091521;28;20581;-57
2023/10/31 01:03:52;;;;;;;6.35;3.28;;;;;;;12.77;92.95;64292.75;5091766;28;20216;-53
2023/10/31 01:06:18;;;;;;;3.50;2.60;;;;;;;12.84;93.73;64302.97;5091471;28;20328;-52
2023/10/31 01:08:43;;;;;;;4.93;2.50;;;;;;;13.08;92.69;64326.78;5091330;28;20653;-52
2023/10/31 01:11:09;;;;;;;6.67;2.50;;;;;;;13.02;91.89;64322.72;5091208;28;20601;-57
2023/10/31 01:13:34;;;;;;;5.95;3.92;;;;;;;13.10;91.73;64328.44;5091417;28;20204;-59
2023/10/31 01:15:59;;;;;;;4.15;2.30;;;;;;;13.08;91.99;64329.31;5073166;28;20204;-52
2023/10/31 01:18:25;;;;;;;6.90;2.90;;;;;;;13.16;90.94;64332.47;5091065;28;20588;-52
2023/10/31 01:20:51;;;;;;;6.13;2.63;;;;;;;12.99;91.29;64316.88;5090658;28;20276;-52
2023/10/31 01:23:16;;;;;;;6.55;2.97;;;;;;;12.85;92.56;64301.53;5091274;28;20212;-52
2023/10/31 01:25:42;;;;;;;3.50;2.50;;;;;;;12.95;91.27;64312.50;5091056;28;20199;-52
2023/10/31 01:28:07;;;;;;;5.70;3.10;;;;;;;12.87;92.43;64303.16;5091272;28;20234;-54
2023/10/31 01:30:33;;;;;;;4.97;2.90;;;;;;;12.91;91.73;64310.63;5091119;28;20207;-56
2023/10/31 01:32:58;;;;;;;5.65;2.67;;;;;;;12.84;91.44;64302.97;5090928;28;20589;-53
2023/10/31 01:35:30;;;;;;;6.43;2.97;;;;;;;12.70;92.46;64287.59;5091061;28;20204;-52
2023/10/31 01:37:56;;;;;;;4.20;2.63;;;;;;;12.57;93.86;64273.34;5090708;28;20314;-53
2023/10/31 01:40:22;;;;;;;4.25;3.10;;;;;;;12.41;94.61;64255.78;5090818;28;20275;-52
2023/10/31 01:42:47;;;;;;;5.43;2.95;;;;;;;12.33;95.86;64249.53;5090710;28;20247;-52
2023/10/31 01:45:13;;;;;;;4.70;2.88;;;;;;;12.17;96.69;64226.94;5090845;28;20689;-51
2023/10/31 01:47:38;;;;;;;4.50;2.63;;;;;;;11.99;97.88;64209.75;5090800;28;20216;-54
2023/10/31 01:50:06;;;;;;;5.33;2.87;;;;;;;12.02;98.35;64208.53;5072655;28;20204;-53
2023/10/31 01:52:32;;;;;;;4.93;2.80;;;;;;;11.95;98.56;64202.84;5090578;28;20204;-58
2023/10/31 01:54:59;;;;;;;7.03;2.87;;;;;;;11.84;99.77;64191.31;5090682;28;20552;-54
2023/10/31 01:57:24;;;;;;;7.20;3.13;;;;;;;11.79;99.72;64188.38;5090481;28;20335;-52
2023/10/31 01:59:50;;;;;;;3.43;2.50;;;;;;;11.77;100.00;64183.66;5090633;28;20286;-53
2023/10/31 02:02:16;;;;;;;4.33;2.70;;;;;;;11.74;99.70;64178.41;5072481;28;20199;-53
2023/10/31 02:04:41;;;;;;;4.47;2.67;;;;;;;11.69;99.91;64172.38;5090418;28;20227;-57
2023/10/31 02:07:07;;;;;;;5.67;3.20;;;;;;;11.56;100.00;64163.69;5090393;28;20192;-51
2023/10/31 02:09:32;;;;;;;4.27;2.53;;;;;;;11.55;100.00;64162.59;5090991;28;20186;-53
2023/10/31 02:11:58;;;;;;;3.73;2.50;;;;;;;11.57;100.00;64164.25;5090349;28;20691;-53
2023/10/31 02:14:24;;;;;;;4.97;2.60;;;;;;;11.63;100.00;64171.38;5090639;28;20200;-53
2023/10/31 02:16:49;;;;;;;5.87;2.80;;;;;;;11.48;100.00;64154.94;5095135;22;20225;-52
2023/10/31 02:19:21;;;;;;;5.80;2.73;;;;;;;11.55;100.00;64162.59;5069963;28;20209;-52
2023/10/31 02:21:47;;;;;;;6.40;2.67;;;;;;;11.62;99.96;64167.19;5070085;28;20205;-53
2023/10/31 02:24:12;;;;;;;2.80;2.23;;;;;;;11.45;100.00;64151.09;5052125;28;20217;-53
2023/10/31 02:26:38;;;;;;;4.53;2.90;;;;;;;11.52;100.00;64156.78;5069953;28;20227;-53
2023/10/31 02:29:03;;;;;;;4.60;2.97;;;;;;;11.55;99.97;64160.06;5070299;28;20689;-54
2023/10/31 02:31:29;;;;;;;5.00;2.53;;;;;;;11.45;100.00;64151.63;5070173;28;20712;-53
2023/10/31 02:33:55;;;;;;;5.80;3.03;;;;;;;11.44;100.00;64150.56;5073600;28;20664;-53
2023/10/31 02:36:20;;;;;;;3.00;2.37;;;;;;;11.46;100.00;64152.19;5055467;28;20201;-54
2023/10/31 02:38:46;;;;;;;3.63;2.47;;;;;;;11.50;100.00;64154.59;5073478;28;20246;-53
2023/10/31 02:41:12;;;;;;;4.97;2.97;;;;;;;11.55;100.00;64160.06;5073378;28;20193;-53
2023/10/31 02:43:38;;;;;;;4.93;2.77;;;;;;;11.44;100.00;64150.56;5073187;28;20350;-53
2023/10/31 02:46:04;;;;;;;7.00;2.33;;;;;;;11.38;100.00;64143.97;5073170;28;20281;-53
2023/10/31 02:48:37;;;;;;;4.80;2.87;;;;;;;11.27;100.00;64129.41;5073656;28;20989;-52
2023/10/31 02:51:04;;;;;;;6.43;2.93;;;;;;;11.31;100.00;64135.75;5055296;28;20651;-52
2023/10/31 02:53:30;;;;;;;8.77;3.30;;;;;;;11.33;100.00;64138.50;5073616;28;20208;-53
2023/10/31 02:55:55;;;;;;;6.50;2.60;;;;;;;11.51;100.00;64158.22;5055414;28;20582;-56
2023/10/31 02:58:20;;;;;;;4.93;2.60;;;;;;;11.59;99.41;64164.47;5073101;28;20273;-52
2023/10/31 03:00:46;;;;;;;5.17;2.37;;;;;;;11.55;99.29;64160.06;5073273;28;20665;-53
2023/10/31 03:03:11;;;;;;;8.83;2.80;;;;;;;11.44;100.00;64150.00;5073036;28;20221;-60
2023/10/31 03:05:37;;;;;;;6.60;2.57;;;;;;;11.35;100.00;64140.69;5073107;28;20647;-55
2023/10/31 03:08:02;;;;;;;4.47;2.43;;;;;;;11.28;100.00;64129.94;5073366;28;20730;-52
2023/10/31 03:10:28;;;;;;;5.73;2.60;;;;;;;11.21;100.00;64122.28;5073068;28;20208;-52
2023/10/31 03:12:54;;;;;;;6.27;3.43;;;;;;;11.13;100.00;64111.53;5073391;28;20644;-53
2023/10/31 03:15:19;;;;;;;4.77;3.03;;;;;;;11.16;100.00;64119.31;5072764;28;20209;-52
2023/10/31 03:17:44;;;;;;;4.67;3.13;;;;;;;11.19;100.00;64122.63;5054908;28;20849;-52
2023/10/31 03:20:10;;;;;;;4.73;2.80;;;;;;;11.13;100.00;64114.06;5072901;28;20303;-52
2023/10/31 03:22:36;;;;;;;4.30;2.93;;;;;;;11.25;100.00;64129.72;5072760;28;20223;-52
2023/10/31 03:25:01;;;;;;;7.37;3.07;;;;;;;11.32;100.00;64136.84;5073016;28;20280;-51
2023/10/31 03:27:27;;;;;;;4.50;2.73;;;;;;;11.27;100.00;64131.91;5072786;28;20220;-55
2023/10/31 03:29:53;;;;;;;5.70;2.80;;;;;;;11.14;100.00;64117.69;5072829;28;20244;-54
2023/10/31 03:32:18;;;;;;;6.70;3.10;;;;;;;11.13;100.00;64114.06;5038113;28;20213;-54
2023/10/31 03:34:43;;;;;;;4.03;2.77;;;;;;;11.01;100.00;64102.91;5072608;28;20685;-54
2023/10/31 03:37:09;;;;;;;4.63;3.40;;;;;;;10.88;100.00;64089.78;5072566;28;20215;-53
2023/10/31 03:39:34;;;;;;;3.83;2.77;;;;;;;10.95;100.00;64097.44;5072527;28;20209;-53
2023/10/31 03:42:00;;;;;;;5.67;3.23;;;;;;;10.86;100.00;64087.03;5072370;28;20709;-54
2023/10/31 03:44:25;;;;;;;12.27;3.50;;;;;;;10.91;100.00;64095.56;5072002;28;20220;-54
2023/10/31 03:46:51;;;;;;;5.27;3.40;;;;;;;10.69;100.00;64065.88;5054181;28;20663;-54
2023/10/31 03:49:16;;;;;;;4.90;3.13;;;;;;;10.66;100.00;64065.13;5054333;28;20212;-54
2023/10/31 03:51:41;;;;;;;5.57;2.63;;;;;;;10.71;100.00;64068.06;5072205;28;20205;-55
2023/10/31 03:54:07;;;;;;;4.60;3.00;;;;;;;10.60;100.00;64058.56;5054344;28;20216;-53
2023/10/31 03:56:43;;;;;;;5.43;3.70;;;;;;;10.63;100.00;64061.84;5072420;28;20262;-53
2023/10/31 03:59:08;;;;;;;5.57;3.47;;;;;;;10.66;100.00;64065.13;5072152;28;20212;-54
2023/10/31 04:01:34;;;;;;;6.17;3.43;;;;;;;10.62;100.00;64060.75;5072043;28;20211;-52
2023/10/31 04:03:59;;;;;;;7.17;3.33;;;;;;;10.47;100.00;64044.31;5072061;28;20225;-53
2023/10/31 04:06:25;;;;;;;7.33;2.63;;;;;;;10.56;100.00;64052.22;5071980;28;20574;-54
2023/10/31 04:08:50;;;;;;;5.20;3.37;;;;;;;10.49;100.00;64046.50;5072098;28;20213;-54
2023/10/31 04:11:17;;;;;;;7.27;3.50;;;;;;;10.55;100.00;64053.63;5072078;28;20224;-53
2023/10/31 04:13:42;;;;;;;3.87;2.80;;;;;;;10.65;100.00;64064.56;5071746;28;20280;-54
2023/10/31 04:16:07;;;;;;;5.90;2.83;;;;;;;10.67;100.00;64064.25;5071770;28;20292;-53
2023/10/31 04:18:33;;;;;;;4.03;2.70;;;;;;;10.79;100.00;64079.34;5054198;28;20559;-52
2023/10/31 04:20:58;;;;;;;3.03;2.80;;;;;;;10.85;100.00;64083.41;5072022;28;20291;-52
2023/10/31 04:23:24;;;;;;;3.97;2.70;;;;;;;11.12;100.00;64115.50;5071924;28;20702;-54
2023/10/31 04:25:50;;;;;;;5.50;2.93;;;;;;;11.15;100.00;64115.72;5071760;28;20552;-52
2023/10/31 04:28:16;;;;;;;8.40;2.70;;;;;;;11.13;100.00;64113.53;5071892;28;20299;-52
2023/10/31 04:30:41;;;;;;;6.90;3.10;;;;;;;11.11;100.00;64109.34;5071504;28;20228;-53
2023/10/31 04:33:07;;;;;;;5.93;3.20;;;;;;;10.92;100.00;64091.63;5071852;28;20208;-53
2023/10/31 04:35:32;;;;;;;4.10;2.80;;;;;;;10.79;100.00;64079.91;5071566;28;20200;-53
2023/10/31 04:37:57;;;;;;;5.97;2.63;;;;;;;10.89;100.00;64090.84;5071468;28;20686;-54
2023/10/31 04:40:23;;;;;;;5.23;3.00;;;;;;;10.77;100.00;64080.25;5053733;28;20628;-54
2023/10/31 04:42:49;;;;;;;5.47;2.63;;;;;;;10.62;100.00;64061.31;5053577;28;20771;-54
2023/10/31 04:45:15;;;;;;;4.37;3.00;;;;;;;10.61;100.00;64062.72;5071491;28;20759;-53
2023/10/31 04:47:42;;;;;;;3.90;2.70;;;;;;;10.55;100.00;64050.56;5053409;28;20699;-53
2023/10/31 04:50:08;;;;;;;5.20;2.90;;;;;;;10.60;100.00;64059.13;5071449;28;20238;-54
2023/10/31 04:52:33;;;;;;;9.10;3.17;;;;;;;10.39;100.00;64033.06;5071136;28;20215;-54
2023/10/31 04:54:58;;;;;;;5.13;3.37;;;;;;;10.47;100.00;64044.31;5070438;28;20683;-53
2023/10/31 04:57:24;;;;;;;7.60;4.50;;;;;;;10.44;100.00;64039.09;5071267;28;20211;-52
2023/10/31 04:59:49;;;;;;;5.20;2.87;;;;;;;10.42;100.00;64038.88;5070971;28;20209;-53
2023/10/31 05:02:15;;;;;;;10.27;4.00;;;;;;;10.54;100.00;64049.47;5071304;28;20697;-54
2023/10/31 05:04:41;;;;;;;6.90;3.33;;;;;;;10.61;100.00;64057.13;5053026;28;20236;-53
2023/10/31 05:07:07;;;;;;;9.43;4.00;;;;;;;10.82;100.00;64080.13;5071061;28;20213;-54
2023/10/31 05:09:32;;;;;;;6.83;3.87;;;;;;;10.73;100.00;64070.25;5053158;28;20213;-54
2023/10/31 05:11:57;;;;;;;5.60;3.73;;;;;;;11.14;100.00;64117.69;5070845;28;20705;-54
2023/10/31 05:14:23;;;;;;;6.60;3.60;;;;;;;12.15;100.00;64224.75;5071040;28;20209;-54
2023/10/31 05:16:48;;;;;;;5.67;4.10;;;;;;;11.76;100.00;64185.63;5070926;28;20567;-53
2023/10/31 05:19:14;;;;;;;5.90;3.23;;;;;;;11.54;100.00;64158.97;5070882;28;20665;-53
2023/10/31 05:21:40;;;;;;;9.30;4.60;;;;;;;11.67;100.00;64175.78;5052902;28;20274;-57
2023/10/31 05:24:06;;;;;;;4.00;2.77;;;;;;;11.42;100.00;64145.28;5070951;28;20216;-53
2023/10/31 05:26:31;;;;;;;4.67;2.60;;;;;;;11.33;100.00;64135.97;5053052;28;20231;-53
2023/10/31 05:28:57;;;;;;;5.87;2.97;;;;;;;11.12;100.00;64112.97;5070811;28;20248;-53
2023/10/31 05:31:24;;;;;;;5.90;3.07;;;;;;;11.07;100.00;64110.00;5070776;28;20211;-54
2023/10/31 05:33:52;;;;;;;5.17;3.00;;;;;;;10.99;100.00;64098.72;5071115;28;20213;-53
2023/10/31 05:36:19;;;;;;;4.30;3.13;;;;;;;10.95;100.00;64096.88;5070766;28;20189;-53
2023/10/31 05:38:45;;;;;;;4.53;2.70;;;;;;;10.80;100.00;64081.00;5070740;28;20211;-54
2023/10/31 05:41:10;;;;;;;5.07;2.70;;;;;;;10.16;100.00;64007.91;5070581;28;20679;-54
2023/10/31 05:43:35;;;;;;;4.17;2.97;;;;;;;10.55;100.00;64051.13;5070476;28;20216;-54
2023/10/31 05:46:01;;;;;;;3.30;2.60;;;;;;;10.71;100.00;64073.66;5070500;28;20223;-54
2023/10/31 05:48:26;;;;;;;4.40;2.77;;;;;;;10.80;100.00;64078.50;5070965;28;20685;-54
2023/10/31 05:50:52;;;;;;;4.23;2.33;;;;;;;11.07;100.00;64107.50;5070781;28;20279;-55
2023/10/31 05:53:17;;;;;;;4.03;2.97;;;;;;;11.30;100.00;64134.66;5070641;28;20282;-53
2023/10/31 05:55:42;;;;;;;5.20;2.63;;;;;;;11.43;100.00;64146.38;5070407;28;20287;-54
2023/10/31 05:58:08;;;;;;;8.27;5.20;;;;;;;12.20;100.00;64228.25;5070711;28;20289;-54
2023/10/31 06:00:34;;;;;;;6.13;2.63;;;;;;;13.11;100.00;64332.59;5070476;28;20208;-53
2023/10/31 06:03:00;;;;;;;3.43;2.60;;;;;;;13.14;100.00;64333.38;5070286;28;20213;-54
2023/10/31 06:05:25;;;;;;;4.70;3.00;;;;;;;12.58;98.91;64272.44;5070465;28;20274;-53
2023/10/31 06:07:51;;;;;;;3.57;2.70;;;;;;;11.93;100.00;64203.16;5073847;28;20686;-53
2023/10/31 06:10:23;;;;;;;4.68;2.40;;;;;;;12.02;100.00;64210.53;5073948;28;20714;-54
2023/10/31 06:12:49;;;;;;;6.05;3.78;;;;;;;12.06;100.00;64215.44;5055900;28;20208;-53
2023/10/31 06:15:16;;;;;;;5.43;3.23;;;;;;;11.71;100.00;64177.63;5073865;28;20219;-53
2023/10/31 06:17:41;;;;;;;10.87;4.00;;;;;;;11.66;100.00;64171.59;5073995;28;20204;-54
2023/10/31 06:20:08;;;;;;;11.03;5.13;;;;;;;11.38;100.00;64140.91;5073827;28;20568;-57
2023/10/31 06:22:33;;;;;;;12.07;6.00;;;;;;;11.19;100.00;64122.63;5055636;28;20215;-57
2023/10/31 06:25:00;;;;;;;10.53;6.37;;;;;;;11.37;100.00;64140.34;5073833;28;20696;-52
2023/10/31 06:27:25;;;;;;;14.33;5.57;;;;;;;11.26;100.00;64125.78;5073592;28;20215;-53
2023/10/31 06:29:51;;;;;;;15.50;6.50;;;;;;;11.84;100.00;64193.31;5071583;28;20603;-53
2023/10/31 06:32:16;;;;;;;13.33;5.87;;;;;;;11.84;100.00;64188.78;5072475;28;20689;-53
2023/10/31 06:34:42;;;;;;;8.43;5.50;;;;;;;11.31;100.00;64135.75;5073448;28;20215;-53
2023/10/31 06:37:07;;;;;;;10.83;5.30;;;;;;;11.35;100.00;64140.69;5073600;28;20204;-53
2023/10/31 06:39:33;;;;;;;8.77;5.73;;;;;;;11.66;100.00;64174.13;5073371;28;20708;-53
2023/10/31 06:41:58;;;;;;;15.30;5.80;;;;;;;11.67;100.00;64172.69;5073633;28;20545;-53
2023/10/31 06:44:24;;;;;;;11.93;5.83;;;;;;;11.54;100.00;64161.50;5073302;28;20620;-51
2023/10/31 06:46:49;;;;;;;9.87;6.03;;;;;;;11.73;100.00;64179.28;5073537;28;20244;-53
2023/10/31 06:49:15;;;;;;;11.82;5.20;;;;;;;12.08;100.00;64217.09;5073324;28;20200;-54
2023/10/31 06:51:41;;;;;;;15.20;6.20;;;;;;;12.20;100.00;64230.25;5073440;28;20213;-52
2023/10/31 06:54:07;;;;;;;12.13;5.43;;;;;;;12.36;100.00;64245.25;5055356;28;20212;-53
2023/10/31 06:56:32;;;;;;;9.50;5.37;;;;;;;12.48;100.00;64260.94;5055289;28;20205;-52
2023/10/31 06:58:58;;;;;;;9.53;5.20;;;;;;;12.47;100.00;64257.31;5073186;28;20201;-53
2023/10/31 07:01:24;;;;;;;12.50;5.83;;;;;;;12.52;100.00;64267.88;5073086;28;20222;-52
2023/10/31 07:03:49;;;;;;;9.07;5.50;;;;;;;12.49;100.00;64262.59;5072991;28;20232;-52
2023/10/31 07:06:15;;;;;;;8.47;5.23;;;;;;;12.61;100.00;64275.19;5073029;28;20200;-52
2023/10/31 07:08:40;;;;;;;13.97;6.13;;;;;;;12.74;100.00;64291.44;5073247;28;20208;-52
2023/10/31 07:11:06;;;;;;;10.32;5.60;;;;;;;12.99;98.64;64314.34;5055084;28;20196;-52
2023/10/31 07:13:31;;;;;;;9.68;6.18;;;;;;;12.93;100.00;64310.28;5055001;28;20207;-53
2023/10/31 07:15:57;;;;;;;9.07;6.10;;;;;;;12.89;98.75;64305.91;5073083;28;20197;-52
2023/10/31 07:18:22;;;;;;;12.30;5.57;;;;;;;13.01;100.00;64316.53;5072535;28;20211;-52
2023/10/31 07:20:47;;;;;;;7.03;4.95;;;;;;;13.34;97.27;64355.31;5073039;28;20188;-53
2023/10/31 07:23:13;;;;;;;7.17;4.63;;;;;;;13.55;92.23;64379.81;5073004;28;20715;-52
2023/10/31 07:25:39;;;;;;;7.45;4.10;;;;;;;13.52;90.49;64373.97;5072839;28;20236;-53
2023/10/31 07:28:04;;;;;;;11.27;4.23;;;;;;;13.41;92.38;64365.00;5072918;28;20637;-54
2023/10/31 07:30:30;;;;;;;7.78;4.57;;;;;;;13.49;93.59;64371.25;5072820;28;20192;-55
2023/10/31 07:32:55;;;;;;;9.60;4.72;;;;;;;13.81;91.06;64405.81;5072756;28;20210;-55
2023/10/31 07:35:20;;;;;;;11.23;4.72;;;;;;;13.91;89.44;64417.34;5072834;28;20204;-53
2023/10/31 07:37:46;;;;;;;8.90;4.07;;;;;;;14.25;85.52;64454.16;5072863;28;20291;-52
2023/10/31 07:40:12;;;;;;;8.68;5.13;;;;;;;14.23;86.78;64451.94;5072730;28;20201;-53
2023/10/31 07:42:37;;;;;;;6.45;3.47;;;;;;;14.39;86.97;64469.53;5054422;28;20768;-52
2023/10/31 07:45:03;;;;;;;8.18;3.78;;;;;;;14.49;86.79;64477.44;5072531;28;20300;-53
2023/10/31 07:47:29;;;;;;;6.73;3.80;;;;;;;14.75;84.82;64508.56;5054678;28;20780;-53
2023/10/31 07:49:54;;;;;;;7.10;4.03;;;;;;;15.09;83.13;64543.38;5072261;28;20292;-52
2023/10/31 07:52:21;;;;;;;7.25;4.00;;;;;;;15.30;81.58;64571.00;5072694;28;20262;-52
2023/10/31 07:54:47;;;;;;;10.65;5.03;;;;;;;15.30;82.52;64569.03;5054233;28;20262;-53
2023/10/31 07:57:12;;;;;;;11.40;4.00;;;;;;;15.77;80.18;64620.75;5072376;28;20221;-54
2023/10/31 07:59:37;;;;;;;12.75;3.90;;;;;;;16.06;78.92;64652.09;5072355;28;20204;-53
2023/10/31 08:02:03;;;;;;;8.00;4.57;;;;;;;16.28;77.84;64676.31;5072119;28;20205;-53
2023/10/31 08:04:32;;;;;;;5.38;3.22;;;;;;;16.49;78.20;64698.91;5071883;28;20245;-53
2023/10/31 08:06:57;;;;;;;7.28;4.03;;;;;;;16.65;76.19;64713.97;5071895;28;20204;-53
2023/10/31 08:09:23;;;;;;;8.73;3.95;;;;;;;17.03;74.50;64755.81;5072077;28;20591;-52
2023/10/31 08:11:48;;;;;;;9.27;4.50;;;;;;;17.12;70.58;64765.75;5054070;28;20584;-53
2023/10/31 08:14:17;;;;;;;9.20;3.58;;;;;;;16.78;72.74;64728.84;5072091;28;20232;-52
2023/10/31 08:16:42;;;;;;;8.07;4.07;;;;;;;17.18;73.80;64771.81;5053968;28;20208;-53
2023/10/31 08:19:08;;;;;;;5.20;3.80;;;;;;;17.33;70.52;64790.88;5071889;28;20201;-52
2023/10/31 08:21:35;;;;;;;7.88;3.58;;;;;;;17.44;71.76;64803.56;5071706;28;20211;-53
2023/10/31 08:24:04;;;;;;;4.82;3.17;;;;;;;17.55;69.36;64815.16;5071812;28;20220;-53
2023/10/31 08:26:34;;;;;;;8.98;3.63;;;;;;;18.06;67.22;64868.81;5071556;28;20706;-52
2023/10/31 08:28:59;;;;;;;9.63;3.20;;;;;;;18.63;65.10;64928.59;5070898;28;20753;-52
2023/10/31 08:31:25;;;;;;;6.93;3.22;;;;;;;18.06;64.28;64870.81;5071039;28;20209;-53
2023/10/31 08:33:51;;;;;;;5.97;3.53;;;;;;;18.20;64.39;64883.72;5071512;28;20201;-54
2023/10/31 08:36:17;;;;;;;7.65;3.63;;;;;;;18.92;63.60;64962.59;5053743;28;20196;-53
2023/10/31 08:38:43;;;;;;;5.20;3.25;;;;;;;19.43;62.26;65021.47;5071795;28;20200;-53
2023/10/31 08:41:08;;;;;;;7.53;3.70;;;;;;;19.75;60.46;65054.25;5071485;28;20201;-53
2023/10/31 08:43:34;;;;;;;7.00;3.55;;;;;;;19.60;59.29;65037.66;5071372;28;20343;-53
2023/10/31 08:46:01;;;;;;;11.27;4.07;;;;;;;19.13;59.76;64988.88;5071482;28;20291;-53
2023/10/31 08:48:26;;;;;;;7.13;3.38;;;;;;;19.43;61.09;65018.91;5071710;28;20303;-54
2023/10/31 08:50:52;;;;;;;8.05;3.70;;;;;;;19.74;59.37;65058.25;5053291;28;20292;-53
2023/10/31 08:53:19;;;;;;;9.00;4.30;;;;;;;20.45;57.63;65133.59;5078582;22;20224;-53
2023/10/31 08:55:44;;;;;;;6.82;3.78;;;;;;;20.99;55.24;65190.16;5053386;28;20205;-54
2023/10/31 08:58:13;;;;;;;8.13;3.78;;;;;;;21.27;54.05;65221.13;5071335;28;20196;-54
2023/10/31 09:00:40;;;;;;;10.35;4.05;;;;;;;21.47;52.82;65243.25;5053251;28;20188;-54
2023/10/31 09:03:06;;;;;;;5.93;3.78;;;;;;;21.78;51.62;65277.00;5071304;28;20209;-54
2023/10/31 09:05:31;;;;;;;8.15;4.15;;;;;;;21.82;51.35;65280.88;5071319;28;20258;-55
2023/10/31 09:07:57;;;;;;;10.85;3.88;;;;;;;20.87;51.91;65176.88;5071550;22;20231;-54
2023/10/31 09:10:23;;;;;;;9.35;3.53;;;;;;;20.30;53.46;65113.91;5091499;28;20199;-54
2023/10/31 09:12:49;;;;;;;6.10;3.90;;;;;;;20.01;54.24;65082.41;5073074;28;20270;-54
2023/10/31 09:15:15;;;;;;;6.43;4.18;;;;;;;20.46;54.20;65129.03;5091317;28;20207;-53
2023/10/31 09:17:41;;;;;;;8.30;4.10;;;;;;;21.19;54.48;65214.31;5091472;28;20223;-54
2023/10/31 09:20:08;;;;;;;8.07;3.65;;;;;;;21.04;52.18;65195.72;5091273;28;20192;-54
2023/10/31 09:22:33;;;;;;;7.57;3.90;;;;;;;21.66;51.19;65264.28;5091419;28;20211;-54
2023/10/31 09:24:59;;;;;;;7.53;3.80;;;;;;;21.74;49.31;65273.13;5072900;28;20238;-53
2023/10/31 09:27:24;;;;;;;12.20;4.30;;;;;;;21.60;49.33;65259.66;5091286;28;20291;-54
2023/10/31 09:29:51;;;;;;;5.15;3.55;;;;;;;21.37;50.75;65232.19;5091123;28;20686;-54
2023/10/31 09:32:18;;;;;;;11.30;3.88;;;;;;;21.49;49.05;65239.81;5091017;28;20211;-54
2023/10/31 09:34:43;;;;;;;13.88;3.78;;;;;;;21.99;48.07;65299.72;5090984;28;20196;-54
2023/10/31 09:37:08;;;;;;;11.50;4.60;;;;;;;22.58;47.14;65362.47;5091136;28;20581;-55
2023/10/31 09:39:34;;;;;;;6.65;3.50;;;;;;;22.08;47.27;65310.22;5090887;28;20751;-54
2023/10/31 09:42:00;;;;;;;9.82;3.83;;;;;;;22.22;48.63;65325.72;5090580;28;20575;-54
2023/10/31 09:44:25;;;;;;;10.48;3.53;;;;;;;22.74;48.30;65382.19;5090664;28;20219;-55
2023/10/31 09:46:53;;;;;;;7.95;3.70;;;;;;;23.31;45.27;65445.91;5091085;28;20216;-52
2023/10/31 09:49:19;;;;;;;8.20;4.25;;;;;;;23.55;44.49;65471.97;5072784;28;20279;-52
2023/10/31 09:51:47;;;;;;;9.98;4.00;;;;;;;23.70;44.69;65488.00;5072782;28;20306;-51
2023/10/31 09:54:15;;;;;;;10.15;4.10;;;;;;;24.08;45.05;65532.72;5090531;28;20291;-52
2023/10/31 09:56:41;;;;;;;8.65;4.20;;;;;;;24.37;44.36;65559.19;5090754;28;20200;-53
2023/10/31 09:59:08;;;;;;;7.60;3.95;;;;;;;24.11;42.87;65533.50;5090868;28;20223;-51
2023/10/31 10:01:33;;;;;;;10.98;4.22;;;;;;;24.42;42.62;65564.75;5090644;28;20218;-52
2023/10/31 10:03:59;;;;;;;7.75;3.58;;;;;;;24.70;43.05;65598.38;5072546;28;20572;-52
2023/10/31 10:06:25;;;;;;;7.28;4.32;;;;;;;24.93;41.45;65624.44;5090347;28;20232;-57
2023/10/31 10:08:50;;;;;;;7.68;4.57;;;;;;;24.27;42.07;65551.22;5090630;28;20630;-53
2023/10/31 10:11:16;;;;;;;7.10;4.28;;;;;;;24.72;42.46;65600.59;5090688;28;20678;-53
2023/10/31 10:13:41;;;;;;;11.70;4.97;;;;;;;24.01;41.54;65522.94;5090688;28;20701;-54
2023/10/31 10:16:07;;;;;;;9.82;4.75;;;;;;;23.77;41.78;65496.34;5090386;28;20203;-54
2023/10/31 10:18:37;;;;;;;12.65;4.63;;;;;;;23.28;42.72;65440.00;5090450;28;20260;-54
2023/10/31 10:21:05;;;;;;;12.23;4.32;;;;;;;24.03;42.47;65524.63;5090414;28;20282;-54
2023/10/31 10:23:32;;;;;;;7.50;4.43;;;;;;;23.92;41.60;65512.41;5090546;28;20219;-54
2023/10/31 10:25:59;;;;;;;6.70;3.67;;;;;;;24.34;41.75;65558.97;5090349;28;20176;-53
2023/10/31 10:28:25;;;;;;;11.00;4.20;;;;;;;24.56;40.66;65583.41;5072413;28;20725;-53
2023/10/31 10:30:53;;;;;;;8.40;4.10;;;;;;;23.91;40.76;65509.28;5090214;28;20192;-53
2023/10/31 10:33:21;;;;;;;6.90;4.13;;;;;;;23.67;41.16;65484.69;5090465;28;20223;-52
2023/10/31 10:35:47;;;;;;;10.43;3.75;;;;;;;23.76;42.65;65494.66;5090286;28;20196;-54
2023/10/31 10:38:18;;;;;;;7.47;4.22;;;;;;;23.96;42.96;65514.25;5090062;28;20212;-53
2023/10/31 10:40:45;;;;;;;10.52;4.10;;;;;;;23.83;41.57;65502.44;5071843;28;20235;-52
2023/10/31 10:43:23;;;;;;;8.63;3.55;;;;;;;23.75;41.10;65491.00;5071598;28;20216;-52
2023/10/31 10:45:59;;;;;;;6.47;4.00;;;;;;;23.72;41.03;65490.22;5090011;28;20273;-53
2023/10/31 10:48:25;;;;;;;9.73;3.80;;;;;;;23.57;41.97;65471.03;5089687;28;20734;-55
2023/10/31 10:51:05;;;;;;;13.18;3.97;;;;;;;23.16;41.68;65429.28;5089859;28;20553;-54
2023/10/31 10:53:39;;;;;;;9.75;3.35;;;;;;;23.26;40.79;65439.78;5091829;28;20207;-52
2023/10/31 10:56:15;;;;;;;11.63;3.92;;;;;;;22.88;41.98;65393.13;5093122;28;20211;-54
2023/10/31 10:59:16;;;;;;;9.88;3.90;;;;;;;22.94;42.19;65402.34;5093538;28;20231;-53
2023/10/31 11:01:44;;;;;;;9.70;4.55;;;;;;;22.72;42.26;65380.00;5082239;28;20352;-53
2023/10/31 11:04:10;;;;;;;5.82;3.22;;;;;;;22.99;42.28;65409.88;5093349;28;20223;-56
2023/10/31 11:06:38;;;;;;;8.63;3.80;;;;;;;22.89;43.13;65396.78;5093353;28;20239;-53
2023/10/31 11:09:06;;;;;;;7.82;3.85;;;;;;;22.99;42.56;65407.88;5093425;28;20214;-52
2023/10/31 11:11:39;;;;;;;14.07;3.38;;;;;;;22.93;46.01;65403.78;5074782;28;20211;-51
2023/10/31 11:14:05;;;;;;;12.00;3.55;;;;;;;22.92;43.86;65402.69;5093132;28;20208;-51
2023/10/31 11:16:44;;;;;;;8.32;3.30;;;;;;;22.86;42.89;65398.63;5092797;28;20265;-52
2023/10/31 11:19:11;;;;;;;10.43;3.10;;;;;;;22.64;42.21;65371.69;5093125;28;20227;-52
2023/10/31 11:21:37;;;;;;;5.78;2.88;;;;;;;22.44;42.23;65350.06;5093061;28;20208;-51
2023/10/31 11:24:03;;;;;;;10.48;3.47;;;;;;;22.32;43.26;65333.66;5093155;28;20260;-52